sensor_id;sensor_type;location;lat;lon;timestamp;P1;durP1;ratioP1;P2;durP2;ratioP2
34236;SDS011;20501;45.956;13.632;2023-12-28T00:00:11;105.00;;;57.83;;
34236;SDS011;20501;45.956;13.632;2023-12-28T00:02:37;101.65;;;55.47;;
34236;SDS011;20501;45.956;13.632;2023-12-28T00:05:02;101.47;;;55.30;;
34236;SDS011;20501;45.956;13.632;2023-12-28T00:07:28;109.80;;;56.73;;
34236;SDS011;20501;45.956;13.632;2023-12-28T00:09:54;108.13;;;58.75;;
34236;SDS011;20501;45.956;13.632;2023-12-28T00:12:19;113.18;;;58.97;;
34236;SDS011;20501;45.956;13.632;2023-12-28T00:14:45;107.88;;;56.28;;
34236;SDS011;20501;45.956;13.632;2023-12-28T00:17:10;105.00;;;55.40;;
34236;SDS011;20501;45.956;13.632;2023-12-28T00:19:36;101.75;;;54.63;;
34236;SDS011;20501;45.956;13.632;2023-12-28T00:22:01;101.30;;;52.90;;
34236;SDS011;20501;45.956;13.632;2023-12-28T00:24:27;120.72;;;62.03;;
34236;SDS011;20501;45.956;13.632;2023-12-28T00:26:52;100.95;;;55.17;;
34236;SDS011;20501;45.956;13.632;2023-12-28T00:29:17;117.28;;;63.35;;
34236;SDS011;20501;45.956;13.632;2023-12-28T00:31:43;124.82;;;63.92;;
34236;SDS011;20501;45.956;13.632;2023-12-28T00:34:08;100.45;;;56.17;;
34236;SDS011;20501;45.956;13.632;2023-12-28T00:36:34;112.70;;;56.92;;
34236;SDS011;20501;45.956;13.632;2023-12-28T00:38:59;100.93;;;53.30;;
34236;SDS011;20501;45.956;13.632;2023-12-28T00:41:24;93.68;;;50.42;;
34236;SDS011;20501;45.956;13.632;2023-12-28T00:43:50;100.63;;;51.92;;
34236;SDS011;20501;45.956;13.632;2023-12-28T00:46:15;83.78;;;47.10;;
34236;SDS011;20501;45.956;13.632;2023-12-28T00:48:41;77.25;;;44.85;;
34236;SDS011;20501;45.956;13.632;2023-12-28T00:51:06;87.20;;;46.28;;
34236;SDS011;20501;45.956;13.632;2023-12-28T00:53:32;87.05;;;47.10;;
34236;SDS011;20501;45.956;13.632;2023-12-28T00:55:57;86.55;;;45.85;;
34236;SDS011;20501;45.956;13.632;2023-12-28T00:58:23;78.55;;;43.22;;
34236;SDS011;20501;45.956;13.632;2023-12-28T01:00:48;88.05;;;45.28;;
34236;SDS011;20501;45.956;13.632;2023-12-28T01:03:14;105.38;;;46.17;;
34236;SDS011;20501;45.956;13.632;2023-12-28T01:05:39;79.47;;;41.70;;
34236;SDS011;20501;45.956;13.632;2023-12-28T01:08:05;83.60;;;42.63;;
34236;SDS011;20501;45.956;13.632;2023-12-28T01:10:30;84.32;;;44.33;;
34236;SDS011;20501;45.956;13.632;2023-12-28T01:12:56;85.55;;;43.97;;
34236;SDS011;20501;45.956;13.632;2023-12-28T01:15:21;87.25;;;44.33;;
34236;SDS011;20501;45.956;13.632;2023-12-28T01:17:47;78.88;;;43.08;;
34236;SDS011;20501;45.956;13.632;2023-12-28T01:20:12;100.43;;;44.55;;
34236;SDS011;20501;45.956;13.632;2023-12-28T01:22:38;81.32;;;42.50;;
34236;SDS011;20501;45.956;13.632;2023-12-28T01:25:03;73.43;;;42.28;;
34236;SDS011;20501;45.956;13.632;2023-12-28T01:27:29;74.50;;;41.75;;
34236;SDS011;20501;45.956;13.632;2023-12-28T01:29:55;85.57;;;42.63;;
34236;SDS011;20501;45.956;13.632;2023-12-28T01:32:20;79.43;;;42.83;;
34236;SDS011;20501;45.956;13.632;2023-12-28T01:34:46;75.90;;;41.88;;
34236;SDS011;20501;45.956;13.632;2023-12-28T01:37:11;81.13;;;41.42;;
34236;SDS011;20501;45.956;13.632;2023-12-28T01:39:36;74.60;;;41.17;;
34236;SDS011;20501;45.956;13.632;2023-12-28T01:42:02;75.32;;;39.08;;
34236;SDS011;20501;45.956;13.632;2023-12-28T01:44:29;71.95;;;40.13;;
34236;SDS011;20501;45.956;13.632;2023-12-28T01:46:54;82.25;;;41.10;;
34236;SDS011;20501;45.956;13.632;2023-12-28T01:49:20;74.70;;;41.15;;
34236;SDS011;20501;45.956;13.632;2023-12-28T01:51:45;77.97;;;40.28;;
34236;SDS011;20501;45.956;13.632;2023-12-28T01:54:11;77.17;;;38.63;;
34236;SDS011;20501;45.956;13.632;2023-12-28T01:56:37;83.97;;;40.83;;
34236;SDS011;20501;45.956;13.632;2023-12-28T01:59:03;78.60;;;41.55;;
34236;SDS011;20501;45.956;13.632;2023-12-28T02:01:28;75.90;;;40.78;;
34236;SDS011;20501;45.956;13.632;2023-12-28T02:03:54;78.65;;;41.47;;
34236;SDS011;20501;45.956;13.632;2023-12-28T02:06:21;69.05;;;38.90;;
34236;SDS011;20501;45.956;13.632;2023-12-28T02:08:48;77.18;;;41.53;;
34236;SDS011;20501;45.956;13.632;2023-12-28T02:11:14;81.47;;;42.97;;
34236;SDS011;20501;45.956;13.632;2023-12-28T02:13:39;77.25;;;42.25;;
34236;SDS011;20501;45.956;13.632;2023-12-28T02:16:21;67.47;;;38.85;;
34236;SDS011;20501;45.956;13.632;2023-12-28T02:18:57;71.28;;;39.97;;
34236;SDS011;20501;45.956;13.632;2023-12-28T02:21:28;75.80;;;40.45;;
34236;SDS011;20501;45.956;13.632;2023-12-28T02:23:56;75.45;;;39.80;;
34236;SDS011;20501;45.956;13.632;2023-12-28T02:26:22;70.60;;;39.70;;
34236;SDS011;20501;45.956;13.632;2023-12-28T02:28:47;63.65;;;37.08;;
34236;SDS011;20501;45.956;13.632;2023-12-28T02:31:25;75.13;;;40.17;;
34236;SDS011;20501;45.956;13.632;2023-12-28T02:34:06;78.32;;;41.92;;
34236;SDS011;20501;45.956;13.632;2023-12-28T02:36:37;68.90;;;39.05;;
34236;SDS011;20501;45.956;13.632;2023-12-28T02:39:09;83.75;;;39.90;;
34236;SDS011;20501;45.956;13.632;2023-12-28T02:41:39;75.10;;;37.38;;
34236;SDS011;20501;45.956;13.632;2023-12-28T02:44:05;75.53;;;39.25;;
34236;SDS011;20501;45.956;13.632;2023-12-28T02:46:30;75.13;;;39.05;;
34236;SDS011;20501;45.956;13.632;2023-12-28T02:48:56;68.55;;;37.97;;
34236;SDS011;20501;45.956;13.632;2023-12-28T02:51:24;66.68;;;35.83;;
34236;SDS011;20501;45.956;13.632;2023-12-28T02:53:50;65.28;;;34.80;;
34236;SDS011;20501;45.956;13.632;2023-12-28T02:56:15;66.97;;;33.72;;
34236;SDS011;20501;45.956;13.632;2023-12-28T02:58:40;52.92;;;30.60;;
34236;SDS011;20501;45.956;13.632;2023-12-28T03:01:06;65.90;;;33.72;;
34236;SDS011;20501;45.956;13.632;2023-12-28T03:03:31;53.05;;;30.30;;
34236;SDS011;20501;45.956;13.632;2023-12-28T03:05:57;51.85;;;28.05;;
34236;SDS011;20501;45.956;13.632;2023-12-28T03:08:22;52.90;;;28.95;;
34236;SDS011;20501;45.956;13.632;2023-12-28T03:10:48;50.17;;;29.17;;
34236;SDS011;20501;45.956;13.632;2023-12-28T03:13:13;48.13;;;27.58;;
34236;SDS011;20501;45.956;13.632;2023-12-28T03:15:39;51.20;;;28.38;;
34236;SDS011;20501;45.956;13.632;2023-12-28T03:18:04;51.22;;;27.27;;
34236;SDS011;20501;45.956;13.632;2023-12-28T03:20:29;60.53;;;28.40;;
34236;SDS011;20501;45.956;13.632;2023-12-28T03:22:55;52.22;;;28.42;;
34236;SDS011;20501;45.956;13.632;2023-12-28T03:25:20;49.55;;;27.92;;
34236;SDS011;20501;45.956;13.632;2023-12-28T03:27:46;49.28;;;28.30;;
34236;SDS011;20501;45.956;13.632;2023-12-28T03:30:11;53.92;;;26.98;;
34236;SDS011;20501;45.956;13.632;2023-12-28T03:32:37;49.00;;;27.08;;
34236;SDS011;20501;45.956;13.632;2023-12-28T03:35:02;56.17;;;27.30;;
34236;SDS011;20501;45.956;13.632;2023-12-28T03:37:28;50.78;;;27.83;;
34236;SDS011;20501;45.956;13.632;2023-12-28T03:39:54;52.95;;;26.75;;
34236;SDS011;20501;45.956;13.632;2023-12-28T03:42:19;49.28;;;27.45;;
34236;SDS011;20501;45.956;13.632;2023-12-28T03:47:12;46.50;;;25.10;;
34236;SDS011;20501;45.956;13.632;2023-12-28T03:49:38;47.45;;;26.27;;
34236;SDS011;20501;45.956;13.632;2023-12-28T03:52:04;46.53;;;26.90;;
34236;SDS011;20501;45.956;13.632;2023-12-28T03:54:30;46.85;;;24.88;;
34236;SDS011;20501;45.956;13.632;2023-12-28T03:56:55;44.30;;;24.63;;
34236;SDS011;20501;45.956;13.632;2023-12-28T03:59:21;46.00;;;26.10;;
34236;SDS011;20501;45.956;13.632;2023-12-28T04:01:46;41.85;;;23.67;;
34236;SDS011;20501;45.956;13.632;2023-12-28T04:04:12;46.20;;;24.98;;
34236;SDS011;20501;45.956;13.632;2023-12-28T04:06:37;50.60;;;24.42;;
34236;SDS011;20501;45.956;13.632;2023-12-28T04:09:03;41.42;;;23.73;;
34236;SDS011;20501;45.956;13.632;2023-12-28T04:11:28;44.17;;;24.17;;
34236;SDS011;20501;45.956;13.632;2023-12-28T04:13:54;47.75;;;23.50;;
34236;SDS011;20501;45.956;13.632;2023-12-28T04:16:20;45.17;;;23.67;;
34236;SDS011;20501;45.956;13.632;2023-12-28T04:18:45;46.42;;;24.48;;
34236;SDS011;20501;45.956;13.632;2023-12-28T04:21:11;48.75;;;24.05;;
34236;SDS011;20501;45.956;13.632;2023-12-28T04:23:38;39.47;;;22.85;;
34236;SDS011;20501;45.956;13.632;2023-12-28T04:26:04;37.85;;;22.55;;
34236;SDS011;20501;45.956;13.632;2023-12-28T04:28:30;41.90;;;22.25;;
34236;SDS011;20501;45.956;13.632;2023-12-28T04:30:55;39.38;;;20.13;;
34236;SDS011;20501;45.956;13.632;2023-12-28T04:33:21;42.15;;;23.35;;
34236;SDS011;20501;45.956;13.632;2023-12-28T04:35:46;36.58;;;19.92;;
34236;SDS011;20501;45.956;13.632;2023-12-28T04:38:12;43.55;;;22.65;;
34236;SDS011;20501;45.956;13.632;2023-12-28T04:40:38;45.63;;;23.35;;
34236;SDS011;20501;45.956;13.632;2023-12-28T04:43:03;37.45;;;20.23;;
34236;SDS011;20501;45.956;13.632;2023-12-28T04:45:29;38.05;;;21.13;;
34236;SDS011;20501;45.956;13.632;2023-12-28T04:47:54;38.53;;;20.67;;
34236;SDS011;20501;45.956;13.632;2023-12-28T04:50:20;37.47;;;21.60;;
34236;SDS011;20501;45.956;13.632;2023-12-28T04:52:45;40.78;;;22.98;;
34236;SDS011;20501;45.956;13.632;2023-12-28T04:55:10;39.58;;;22.33;;
34236;SDS011;20501;45.956;13.632;2023-12-28T04:57:36;36.95;;;21.80;;
34236;SDS011;20501;45.956;13.632;2023-12-28T05:00:01;37.72;;;21.52;;
34236;SDS011;20501;45.956;13.632;2023-12-28T05:02:28;41.63;;;21.50;;
34236;SDS011;20501;45.956;13.632;2023-12-28T05:04:53;38.95;;;21.00;;
34236;SDS011;20501;45.956;13.632;2023-12-28T05:07:19;35.03;;;21.42;;
34236;SDS011;20501;45.956;13.632;2023-12-28T05:09:44;38.05;;;20.65;;
34236;SDS011;20501;45.956;13.632;2023-12-28T05:12:09;35.15;;;20.63;;
34236;SDS011;20501;45.956;13.632;2023-12-28T05:14:35;40.90;;;20.83;;
34236;SDS011;20501;45.956;13.632;2023-12-28T05:17:00;38.83;;;20.90;;
34236;SDS011;20501;45.956;13.632;2023-12-28T05:19:26;45.15;;;22.15;;
34236;SDS011;20501;45.956;13.632;2023-12-28T05:21:51;38.45;;;20.63;;
34236;SDS011;20501;45.956;13.632;2023-12-28T05:24:16;40.38;;;21.08;;
34236;SDS011;20501;45.956;13.632;2023-12-28T05:26:42;43.42;;;22.52;;
34236;SDS011;20501;45.956;13.632;2023-12-28T05:29:07;40.22;;;22.48;;
34236;SDS011;20501;45.956;13.632;2023-12-28T05:31:33;41.08;;;21.27;;
34236;SDS011;20501;45.956;13.632;2023-12-28T05:33:58;44.83;;;21.63;;
34236;SDS011;20501;45.956;13.632;2023-12-28T05:36:24;40.97;;;21.67;;
34236;SDS011;20501;45.956;13.632;2023-12-28T05:38:50;47.47;;;21.73;;
34236;SDS011;20501;45.956;13.632;2023-12-28T05:41:15;38.03;;;19.98;;
34236;SDS011;20501;45.956;13.632;2023-12-28T05:43:41;45.92;;;22.17;;
34236;SDS011;20501;45.956;13.632;2023-12-28T05:46:06;43.38;;;21.60;;
34236;SDS011;20501;45.956;13.632;2023-12-28T05:48:32;46.00;;;20.67;;
34236;SDS011;20501;45.956;13.632;2023-12-28T05:50:57;38.35;;;21.13;;
34236;SDS011;20501;45.956;13.632;2023-12-28T05:53:24;41.67;;;21.85;;
34236;SDS011;20501;45.956;13.632;2023-12-28T05:55:49;41.45;;;22.60;;
34236;SDS011;20501;45.956;13.632;2023-12-28T05:58:15;40.30;;;22.40;;
34236;SDS011;20501;45.956;13.632;2023-12-28T06:00:40;40.38;;;21.25;;
34236;SDS011;20501;45.956;13.632;2023-12-28T06:03:06;42.17;;;21.27;;
34236;SDS011;20501;45.956;13.632;2023-12-28T06:05:32;43.05;;;21.58;;
34236;SDS011;20501;45.956;13.632;2023-12-28T06:07:57;38.55;;;19.58;;
34236;SDS011;20501;45.956;13.632;2023-12-28T06:10:23;36.15;;;20.90;;
34236;SDS011;20501;45.956;13.632;2023-12-28T06:12:49;37.87;;;21.63;;
34236;SDS011;20501;45.956;13.632;2023-12-28T06:15:14;31.05;;;18.90;;
34236;SDS011;20501;45.956;13.632;2023-12-28T06:17:40;40.42;;;21.27;;
34236;SDS011;20501;45.956;13.632;2023-12-28T06:20:05;43.88;;;22.42;;
34236;SDS011;20501;45.956;13.632;2023-12-28T06:22:33;33.83;;;18.73;;
34236;SDS011;20501;45.956;13.632;2023-12-28T06:24:58;48.40;;;22.73;;
34236;SDS011;20501;45.956;13.632;2023-12-28T06:27:24;42.15;;;21.02;;
34236;SDS011;20501;45.956;13.632;2023-12-28T06:29:49;36.60;;;20.83;;
34236;SDS011;20501;45.956;13.632;2023-12-28T06:32:15;49.72;;;22.40;;
34236;SDS011;20501;45.956;13.632;2023-12-28T06:34:40;41.58;;;21.92;;
34236;SDS011;20501;45.956;13.632;2023-12-28T06:37:06;36.38;;;20.80;;
34236;SDS011;20501;45.956;13.632;2023-12-28T06:39:31;45.58;;;22.55;;
34236;SDS011;20501;45.956;13.632;2023-12-28T06:41:56;40.13;;;20.98;;
34236;SDS011;20501;45.956;13.632;2023-12-28T06:44:22;43.60;;;21.77;;
34236;SDS011;20501;45.956;13.632;2023-12-28T06:46:47;36.28;;;20.65;;
34236;SDS011;20501;45.956;13.632;2023-12-28T06:49:13;34.75;;;20.00;;
34236;SDS011;20501;45.956;13.632;2023-12-28T06:51:38;40.83;;;20.75;;
34236;SDS011;20501;45.956;13.632;2023-12-28T06:54:04;34.95;;;18.88;;
34236;SDS011;20501;45.956;13.632;2023-12-28T06:56:29;47.08;;;21.15;;
34236;SDS011;20501;45.956;13.632;2023-12-28T06:58:55;33.88;;;20.10;;
34236;SDS011;20501;45.956;13.632;2023-12-28T07:01:20;41.63;;;18.77;;
34236;SDS011;20501;45.956;13.632;2023-12-28T07:03:45;29.42;;;17.83;;
34236;SDS011;20501;45.956;13.632;2023-12-28T07:06:11;35.53;;;17.60;;
34236;SDS011;20501;45.956;13.632;2023-12-28T07:08:38;30.98;;;17.35;;
34236;SDS011;20501;45.956;13.632;2023-12-28T07:11:04;31.23;;;16.27;;
34236;SDS011;20501;45.956;13.632;2023-12-28T07:13:29;30.10;;;17.20;;
34236;SDS011;20501;45.956;13.632;2023-12-28T07:15:55;33.33;;;18.23;;
34236;SDS011;20501;45.956;13.632;2023-12-28T07:18:20;31.42;;;16.45;;
34236;SDS011;20501;45.956;13.632;2023-12-28T07:20:46;31.08;;;16.85;;
34236;SDS011;20501;45.956;13.632;2023-12-28T07:23:12;29.45;;;15.10;;
34236;SDS011;20501;45.956;13.632;2023-12-28T07:25:38;30.33;;;15.27;;
34236;SDS011;20501;45.956;13.632;2023-12-28T07:28:03;26.85;;;16.25;;
34236;SDS011;20501;45.956;13.632;2023-12-28T07:30:29;29.42;;;17.23;;
34236;SDS011;20501;45.956;13.632;2023-12-28T07:32:55;26.00;;;15.50;;
34236;SDS011;20501;45.956;13.632;2023-12-28T07:35:20;28.92;;;14.18;;
34236;SDS011;20501;45.956;13.632;2023-12-28T07:37:45;30.05;;;14.77;;
34236;SDS011;20501;45.956;13.632;2023-12-28T07:40:11;24.10;;;13.27;;
34236;SDS011;20501;45.956;13.632;2023-12-28T07:42:37;22.88;;;13.57;;
34236;SDS011;20501;45.956;13.632;2023-12-28T07:45:03;33.45;;;14.57;;
34236;SDS011;20501;45.956;13.632;2023-12-28T07:47:29;39.10;;;14.95;;
34236;SDS011;20501;45.956;13.632;2023-12-28T07:49:55;27.63;;;14.27;;
34236;SDS011;20501;45.956;13.632;2023-12-28T07:52:21;26.80;;;13.90;;
34236;SDS011;20501;45.956;13.632;2023-12-28T07:54:46;24.63;;;14.85;;
34236;SDS011;20501;45.956;13.632;2023-12-28T07:57:11;27.10;;;14.07;;
34236;SDS011;20501;45.956;13.632;2023-12-28T07:59:37;31.38;;;15.18;;
34236;SDS011;20501;45.956;13.632;2023-12-28T08:02:02;33.88;;;15.07;;
34236;SDS011;20501;45.956;13.632;2023-12-28T08:04:28;31.77;;;16.10;;
34236;SDS011;20501;45.956;13.632;2023-12-28T08:06:53;27.08;;;15.40;;
34236;SDS011;20501;45.956;13.632;2023-12-28T08:09:19;25.75;;;15.25;;
34236;SDS011;20501;45.956;13.632;2023-12-28T08:11:44;30.33;;;15.77;;
34236;SDS011;20501;45.956;13.632;2023-12-28T08:14:10;32.38;;;19.00;;
34236;SDS011;20501;45.956;13.632;2023-12-28T08:16:35;69.97;;;36.75;;
34236;SDS011;20501;45.956;13.632;2023-12-28T08:19:01;38.10;;;21.15;;
34236;SDS011;20501;45.956;13.632;2023-12-28T08:21:27;32.67;;;17.58;;
34236;SDS011;20501;45.956;13.632;2023-12-28T08:23:52;29.88;;;17.38;;
34236;SDS011;20501;45.956;13.632;2023-12-28T08:26:18;39.92;;;20.17;;
34236;SDS011;20501;45.956;13.632;2023-12-28T08:28:43;43.03;;;23.33;;
34236;SDS011;20501;45.956;13.632;2023-12-28T08:31:08;35.53;;;19.95;;
34236;SDS011;20501;45.956;13.632;2023-12-28T08:33:35;39.58;;;19.17;;
34236;SDS011;20501;45.956;13.632;2023-12-28T08:36:04;35.42;;;17.88;;
34236;SDS011;20501;45.956;13.632;2023-12-28T08:38:30;32.40;;;17.20;;
34236;SDS011;20501;45.956;13.632;2023-12-28T08:40:56;54.50;;;27.50;;
34236;SDS011;20501;45.956;13.632;2023-12-28T08:43:21;40.67;;;22.45;;
34236;SDS011;20501;45.956;13.632;2023-12-28T08:45:47;33.15;;;15.65;;
34236;SDS011;20501;45.956;13.632;2023-12-28T08:48:12;41.80;;;19.55;;
34236;SDS011;20501;45.956;13.632;2023-12-28T08:50:38;50.15;;;18.80;;
34236;SDS011;20501;45.956;13.632;2023-12-28T08:53:03;35.97;;;17.25;;
34236;SDS011;20501;45.956;13.632;2023-12-28T08:55:29;41.20;;;17.33;;
34236;SDS011;20501;45.956;13.632;2023-12-28T08:57:54;39.75;;;20.00;;
34236;SDS011;20501;45.956;13.632;2023-12-28T09:00:20;51.55;;;23.60;;
34236;SDS011;20501;45.956;13.632;2023-12-28T09:02:46;43.10;;;21.20;;
34236;SDS011;20501;45.956;13.632;2023-12-28T09:05:11;35.53;;;17.02;;
34236;SDS011;20501;45.956;13.632;2023-12-28T09:07:37;43.95;;;20.88;;
34236;SDS011;20501;45.956;13.632;2023-12-28T09:10:08;44.33;;;21.50;;
34236;SDS011;20501;45.956;13.632;2023-12-28T09:12:37;44.25;;;22.10;;
34236;SDS011;20501;45.956;13.632;2023-12-28T09:15:04;38.50;;;20.67;;
34236;SDS011;20501;45.956;13.632;2023-12-28T09:17:30;61.20;;;25.08;;
34236;SDS011;20501;45.956;13.632;2023-12-28T09:19:55;50.35;;;25.30;;
34236;SDS011;20501;45.956;13.632;2023-12-28T09:22:21;44.00;;;23.80;;
34236;SDS011;20501;45.956;13.632;2023-12-28T09:24:46;43.85;;;23.48;;
34236;SDS011;20501;45.956;13.632;2023-12-28T09:27:11;46.47;;;23.48;;
34236;SDS011;20501;45.956;13.632;2023-12-28T09:29:37;50.15;;;24.50;;
34236;SDS011;20501;45.956;13.632;2023-12-28T09:32:02;49.97;;;26.38;;
34236;SDS011;20501;45.956;13.632;2023-12-28T09:34:28;67.07;;;34.08;;
34236;SDS011;20501;45.956;13.632;2023-12-28T09:36:53;62.28;;;33.22;;
34236;SDS011;20501;45.956;13.632;2023-12-28T09:39:19;58.00;;;32.55;;
34236;SDS011;20501;45.956;13.632;2023-12-28T09:41:46;62.83;;;32.45;;
34236;SDS011;20501;45.956;13.632;2023-12-28T09:44:20;66.95;;;30.88;;
34236;SDS011;20501;45.956;13.632;2023-12-28T09:46:46;60.03;;;34.37;;
34236;SDS011;20501;45.956;13.632;2023-12-28T09:49:12;64.82;;;33.53;;
34236;SDS011;20501;45.956;13.632;2023-12-28T09:51:38;65.75;;;33.80;;
34236;SDS011;20501;45.956;13.632;2023-12-28T09:54:03;55.60;;;31.10;;
34236;SDS011;20501;45.956;13.632;2023-12-28T09:56:30;56.95;;;31.05;;
34236;SDS011;20501;45.956;13.632;2023-12-28T09:58:57;52.63;;;29.10;;
34236;SDS011;20501;45.956;13.632;2023-12-28T10:01:24;51.55;;;29.92;;
34236;SDS011;20501;45.956;13.632;2023-12-28T10:03:49;57.25;;;30.30;;
34236;SDS011;20501;45.956;13.632;2023-12-28T10:06:15;60.88;;;28.20;;
34236;SDS011;20501;45.956;13.632;2023-12-28T10:08:47;41.90;;;26.73;;
34236;SDS011;20501;45.956;13.632;2023-12-28T10:11:16;46.30;;;28.05;;
34236;SDS011;20501;45.956;13.632;2023-12-28T10:13:43;49.05;;;26.02;;
34236;SDS011;20501;45.956;13.632;2023-12-28T10:16:09;49.53;;;28.50;;
34236;SDS011;20501;45.956;13.632;2023-12-28T10:18:36;60.78;;;29.55;;
34236;SDS011;20501;45.956;13.632;2023-12-28T10:21:05;54.38;;;27.15;;
34236;SDS011;20501;45.956;13.632;2023-12-28T10:23:30;55.13;;;24.35;;
34236;SDS011;20501;45.956;13.632;2023-12-28T10:25:56;44.17;;;22.80;;
34236;SDS011;20501;45.956;13.632;2023-12-28T10:28:21;36.15;;;22.05;;
34236;SDS011;20501;45.956;13.632;2023-12-28T10:30:47;34.35;;;19.55;;
34236;SDS011;20501;45.956;13.632;2023-12-28T10:33:15;37.65;;;19.45;;
34236;SDS011;20501;45.956;13.632;2023-12-28T10:35:44;46.67;;;21.90;;
34236;SDS011;20501;45.956;13.632;2023-12-28T10:38:10;37.50;;;19.63;;
34236;SDS011;20501;45.956;13.632;2023-12-28T10:40:38;41.40;;;20.67;;
34236;SDS011;20501;45.956;13.632;2023-12-28T10:43:07;34.10;;;18.95;;
34236;SDS011;20501;45.956;13.632;2023-12-28T10:45:36;32.72;;;17.30;;
34236;SDS011;20501;45.956;13.632;2023-12-28T10:50:35;28.83;;;15.82;;
34236;SDS011;20501;45.956;13.632;2023-12-28T10:55:50;26.95;;;16.30;;
34236;SDS011;20501;45.956;13.632;2023-12-28T10:58:24;30.75;;;14.18;;
34236;SDS011;20501;45.956;13.632;2023-12-28T11:01:02;29.88;;;14.98;;
34236;SDS011;20501;45.956;13.632;2023-12-28T11:03:34;25.55;;;14.15;;
34236;SDS011;20501;45.956;13.632;2023-12-28T11:06:04;24.33;;;13.27;;
34236;SDS011;20501;45.956;13.632;2023-12-28T11:08:32;29.50;;;14.45;;
34236;SDS011;20501;45.956;13.632;2023-12-28T11:10:57;32.47;;;16.92;;
34236;SDS011;20501;45.956;13.632;2023-12-28T11:13:26;29.00;;;15.23;;
34236;SDS011;20501;45.956;13.632;2023-12-28T11:15:55;25.70;;;14.25;;
34236;SDS011;20501;45.956;13.632;2023-12-28T11:20:48;30.70;;;15.60;;
34236;SDS011;20501;45.956;13.632;2023-12-28T11:23:15;27.88;;;15.13;;
34236;SDS011;20501;45.956;13.632;2023-12-28T11:25:40;29.65;;;14.20;;
34236;SDS011;20501;45.956;13.632;2023-12-28T11:28:09;29.10;;;15.48;;
34236;SDS011;20501;45.956;13.632;2023-12-28T11:30:36;31.00;;;16.67;;
34236;SDS011;20501;45.956;13.632;2023-12-28T11:33:02;44.60;;;26.40;;
34236;SDS011;20501;45.956;13.632;2023-12-28T11:35:34;38.22;;;22.38;;
34236;SDS011;20501;45.956;13.632;2023-12-28T11:38:08;38.65;;;17.73;;
34236;SDS011;20501;45.956;13.632;2023-12-28T11:40:44;33.67;;;17.27;;
34236;SDS011;20501;45.956;13.632;2023-12-28T11:43:18;38.20;;;17.35;;
34236;SDS011;20501;45.956;13.632;2023-12-28T11:45:51;36.30;;;17.83;;
34236;SDS011;20501;45.956;13.632;2023-12-28T11:48:26;30.73;;;17.77;;
34236;SDS011;20501;45.956;13.632;2023-12-28T11:50:59;28.05;;;16.35;;
34236;SDS011;20501;45.956;13.632;2023-12-28T11:53:25;32.40;;;14.35;;
34236;SDS011;20501;45.956;13.632;2023-12-28T11:55:51;27.92;;;15.27;;
34236;SDS011;20501;45.956;13.632;2023-12-28T11:58:18;27.00;;;12.57;;
34236;SDS011;20501;45.956;13.632;2023-12-28T12:00:43;26.08;;;14.30;;
34236;SDS011;20501;45.956;13.632;2023-12-28T12:03:12;23.25;;;13.40;;
34236;SDS011;20501;45.956;13.632;2023-12-28T12:05:38;30.17;;;14.30;;
34236;SDS011;20501;45.956;13.632;2023-12-28T12:08:05;25.63;;;14.50;;
34236;SDS011;20501;45.956;13.632;2023-12-28T12:10:31;25.33;;;15.15;;
34236;SDS011;20501;45.956;13.632;2023-12-28T12:12:57;26.77;;;14.88;;
34236;SDS011;20501;45.956;13.632;2023-12-28T12:15:23;30.80;;;17.40;;
34236;SDS011;20501;45.956;13.632;2023-12-28T12:17:48;26.60;;;17.00;;
34236;SDS011;20501;45.956;13.632;2023-12-28T12:20:14;29.20;;;17.77;;
34236;SDS011;20501;45.956;13.632;2023-12-28T12:22:40;29.10;;;17.15;;
34236;SDS011;20501;45.956;13.632;2023-12-28T12:25:05;39.55;;;22.08;;
34236;SDS011;20501;45.956;13.632;2023-12-28T12:27:32;30.33;;;16.17;;
34236;SDS011;20501;45.956;13.632;2023-12-28T12:29:59;28.02;;;17.13;;
34236;SDS011;20501;45.956;13.632;2023-12-28T12:32:24;31.52;;;17.30;;
34236;SDS011;20501;45.956;13.632;2023-12-28T12:34:51;31.15;;;17.42;;
34236;SDS011;20501;45.956;13.632;2023-12-28T12:37:17;31.50;;;18.17;;
34236;SDS011;20501;45.956;13.632;2023-12-28T12:39:42;32.28;;;18.55;;
34236;SDS011;20501;45.956;13.632;2023-12-28T12:42:12;39.10;;;19.97;;
34236;SDS011;20501;45.956;13.632;2023-12-28T12:44:38;38.00;;;20.90;;
34236;SDS011;20501;45.956;13.632;2023-12-28T12:47:04;41.78;;;21.63;;
34236;SDS011;20501;45.956;13.632;2023-12-28T12:49:29;43.92;;;21.45;;
34236;SDS011;20501;45.956;13.632;2023-12-28T12:51:56;50.70;;;21.95;;
34236;SDS011;20501;45.956;13.632;2023-12-28T12:54:22;45.17;;;21.92;;
34236;SDS011;20501;45.956;13.632;2023-12-28T12:56:49;43.30;;;22.48;;
34236;SDS011;20501;45.956;13.632;2023-12-28T12:59:15;49.10;;;22.60;;
34236;SDS011;20501;45.956;13.632;2023-12-28T13:01:42;55.47;;;23.40;;
34236;SDS011;20501;45.956;13.632;2023-12-28T13:04:08;54.47;;;26.25;;
34236;SDS011;20501;45.956;13.632;2023-12-28T13:06:34;49.67;;;24.53;;
34236;SDS011;20501;45.956;13.632;2023-12-28T13:09:00;65.90;;;24.35;;
34236;SDS011;20501;45.956;13.632;2023-12-28T13:11:25;61.28;;;29.67;;
34236;SDS011;20501;45.956;13.632;2023-12-28T13:13:54;63.33;;;33.13;;
34236;SDS011;20501;45.956;13.632;2023-12-28T13:16:20;63.58;;;30.48;;
34236;SDS011;20501;45.956;13.632;2023-12-28T13:18:45;50.72;;;27.23;;
34236;SDS011;20501;45.956;13.632;2023-12-28T13:21:10;54.15;;;29.90;;
34236;SDS011;20501;45.956;13.632;2023-12-28T13:23:36;62.40;;;31.67;;
34236;SDS011;20501;45.956;13.632;2023-12-28T13:26:01;70.43;;;33.40;;
34236;SDS011;20501;45.956;13.632;2023-12-28T13:28:27;68.38;;;32.55;;
34236;SDS011;20501;45.956;13.632;2023-12-28T13:30:52;65.57;;;34.35;;
34236;SDS011;20501;45.956;13.632;2023-12-28T13:33:20;65.18;;;33.00;;
34236;SDS011;20501;45.956;13.632;2023-12-28T13:35:46;60.83;;;31.30;;
34236;SDS011;20501;45.956;13.632;2023-12-28T13:38:12;56.25;;;31.00;;
34236;SDS011;20501;45.956;13.632;2023-12-28T13:40:37;76.43;;;34.67;;
34236;SDS011;20501;45.956;13.632;2023-12-28T13:43:03;72.22;;;35.28;;
34236;SDS011;20501;45.956;13.632;2023-12-28T13:45:28;63.63;;;36.13;;
34236;SDS011;20501;45.956;13.632;2023-12-28T13:47:54;68.43;;;36.78;;
34236;SDS011;20501;45.956;13.632;2023-12-28T13:50:19;59.00;;;31.17;;
34236;SDS011;20501;45.956;13.632;2023-12-28T13:52:47;53.08;;;30.15;;
34236;SDS011;20501;45.956;13.632;2023-12-28T13:55:13;61.67;;;30.67;;
34236;SDS011;20501;45.956;13.632;2023-12-28T13:57:38;58.03;;;31.05;;
34236;SDS011;20501;45.956;13.632;2023-12-28T14:00:04;58.83;;;29.80;;
34236;SDS011;20501;45.956;13.632;2023-12-28T14:02:30;57.80;;;24.55;;
34236;SDS011;20501;45.956;13.632;2023-12-28T14:04:56;46.03;;;25.73;;
34236;SDS011;20501;45.956;13.632;2023-12-28T14:07:21;43.70;;;23.25;;
34236;SDS011;20501;45.956;13.632;2023-12-28T14:09:47;48.40;;;22.33;;
34236;SDS011;20501;45.956;13.632;2023-12-28T14:12:13;33.47;;;19.58;;